createdAt,value
2018-12-14T00:00:26.506Z,11.03
2018-12-14T00:05:19.694Z,13.15
2018-12-14T00:10:14.930Z,11.83
2018-12-14T00:15:10.608Z,11.80
2018-12-14T00:20:07.039Z,11.28
2018-12-14T00:25:00.337Z,11.60
2018-12-14T00:29:54.234Z,11.55
2018-12-14T00:34:49.783Z,11.25
2018-12-14T00:39:42.979Z,11.45
2018-12-14T00:44:36.233Z,10.50
2018-12-14T00:49:29.428Z,8.98
2018-12-14T00:54:22.625Z,10.25
2018-12-14T00:59:15.830Z,9.78
2018-12-14T01:04:09.044Z,8.88
2018-12-14T01:09:03.031Z,10.40
2018-12-14T01:13:56.753Z,10.40
2018-12-14T01:18:49.977Z,9.95
2018-12-14T01:23:43.147Z,10.05
2018-12-14T01:28:36.342Z,11.35
2018-12-14T01:33:29.536Z,10.43
2018-12-14T01:38:22.752Z,12.37
2018-12-14T01:43:15.931Z,9.43
2018-12-14T01:48:09.109Z,13.48
2018-12-14T01:53:02.285Z,10.40
2018-12-14T01:57:55.478Z,10.88
2018-12-14T02:02:48.710Z,10.13
2018-12-14T02:07:41.889Z,9.75
2018-12-14T02:12:35.107Z,10.93
2018-12-14T02:17:28.321Z,11.65
2018-12-14T02:22:21.522Z,11.48
2018-12-14T02:27:14.783Z,10.13
2018-12-14T02:32:08.879Z,10.53
2018-12-14T02:37:02.092Z,12.60
2018-12-14T02:41:55.285Z,11.80
2018-12-14T02:46:48.506Z,12.75
2018-12-14T02:51:41.721Z,13.00
2018-12-14T02:56:34.959Z,11.25
2018-12-14T03:01:28.257Z,9.45
2018-12-14T03:06:21.422Z,10.32
2018-12-14T03:11:14.617Z,12.37
2018-12-14T03:16:07.880Z,11.68
2018-12-14T03:21:01.055Z,9.98
2018-12-14T03:25:54.714Z,11.80
2018-12-14T03:30:47.923Z,9.65
2018-12-14T03:35:41.114Z,8.63
2018-12-14T03:40:34.311Z,8.68
2018-12-14T03:45:27.518Z,8.98
2018-12-14T03:50:20.730Z,8.13
2018-12-14T03:55:13.940Z,8.20
2018-12-14T04:00:09.382Z,9.30
2018-12-14T04:05:02.613Z,7.78
2018-12-14T04:09:56.039Z,9.85
2018-12-14T04:14:49.515Z,7.87
2018-12-14T04:19:42.833Z,9.40
2018-12-14T04:24:36.027Z,9.10
2018-12-14T04:29:29.265Z,7.72
2018-12-14T04:34:22.481Z,8.20
2018-12-14T04:39:15.706Z,9.45
2018-12-14T04:44:09.155Z,7.60
2018-12-14T04:49:03.126Z,9.45
2018-12-14T04:53:56.333Z,8.08
2018-12-14T04:58:49.486Z,9.50
2018-12-14T05:03:43.752Z,7.75
2018-12-14T05:08:36.957Z,9.57
2018-12-14T05:13:30.157Z,9.48
2018-12-14T05:18:23.367Z,10.08
2018-12-14T05:23:16.603Z,11.00
2018-12-14T05:28:09.819Z,10.75
2018-12-14T05:33:03.003Z,9.95
2018-12-14T05:37:56.195Z,8.43
2018-12-14T05:42:49.406Z,11.33
2018-12-14T05:47:42.811Z,10.38
2018-12-14T05:52:35.990Z,9.83
2018-12-14T05:57:29.151Z,10.03
2018-12-14T06:02:22.634Z,10.45
2018-12-14T06:07:15.884Z,10.67
2018-12-14T06:12:09.428Z,10.45
2018-12-14T06:17:02.671Z,10.18
2018-12-14T06:21:55.861Z,9.65
2018-12-14T06:26:49.045Z,12.37
2018-12-14T06:31:42.213Z,10.13
2018-12-14T06:36:35.427Z,11.35
2018-12-14T06:41:29.176Z,10.88
2018-12-14T06:46:22.349Z,11.73
2018-12-14T06:51:15.534Z,9.50
2018-12-14T06:56:08.770Z,11.03
2018-12-14T07:01:01.979Z,9.85
2018-12-14T07:05:55.234Z,9.48
2018-12-14T07:10:48.425Z,11.30
2018-12-14T07:15:41.621Z,9.08
2018-12-14T07:20:35.003Z,9.03
2018-12-14T07:25:28.217Z,10.70
2018-12-14T07:30:21.423Z,10.78
2018-12-14T07:35:14.646Z,10.80
2018-12-14T07:40:08.170Z,9.70
2018-12-14T07:45:02.063Z,10.48
2018-12-14T07:49:55.275Z,12.03
2018-12-14T07:54:48.492Z,10.00
2018-12-14T07:59:41.722Z,9.50
2018-12-14T08:04:35.904Z,9.60
2018-12-14T08:09:30.747Z,12.07
2018-12-14T08:14:23.985Z,9.50
2018-12-14T08:19:17.908Z,9.48
2018-12-14T08:24:11.149Z,10.40
2018-12-14T08:29:04.317Z,12.47
2018-12-14T08:33:57.499Z,11.38
2018-12-14T08:38:51.380Z,12.03
2018-12-14T08:43:44.552Z,12.00
2018-12-14T08:48:37.781Z,14.45
2018-12-14T08:53:32.150Z,11.83
2018-12-14T08:58:26.010Z,11.53
2018-12-14T09:03:19.184Z,11.95
2018-12-14T09:08:12.391Z,13.40
2018-12-14T09:13:05.569Z,12.20
2018-12-14T09:17:58.729Z,12.25
2018-12-14T09:22:51.907Z,12.65
2018-12-14T09:27:45.117Z,13.13
2018-12-14T09:32:39.299Z,14.73
2018-12-14T09:37:34.372Z,13.85
2018-12-14T09:42:29.723Z,14.75
2018-12-14T09:47:24.402Z,13.05
2018-12-14T09:52:19.009Z,15.05
2018-12-14T09:57:12.928Z,15.00
2018-12-14T10:02:06.241Z,14.87
2018-12-14T10:06:59.422Z,12.88
2018-12-14T10:11:55.336Z,14.20
2018-12-14T10:16:48.905Z,12.82
2018-12-14T10:21:42.102Z,12.28
2018-12-14T10:26:35.297Z,13.45
2018-12-14T10:31:28.470Z,14.75
2018-12-14T10:36:21.860Z,14.83
2018-12-14T10:41:15.015Z,13.28
2018-12-14T10:46:08.221Z,12.55
2018-12-14T10:51:01.630Z,13.10
2018-12-14T10:55:56.042Z,14.65
2018-12-14T11:00:55.134Z,15.63
2018-12-14T11:05:48.365Z,13.93
2018-12-14T11:10:41.583Z,13.28
2018-12-14T11:15:34.852Z,15.58
2018-12-14T11:20:28.110Z,15.90
2018-12-14T11:25:21.325Z,17.85
2018-12-14T11:30:16.614Z,17.02
2018-12-14T11:35:09.976Z,14.95
2018-12-14T11:40:03.723Z,16.45
2018-12-14T11:44:56.915Z,16.87
2018-12-14T11:49:50.339Z,13.83
2018-12-14T11:54:43.633Z,14.30
2018-12-14T11:59:36.816Z,14.00
2018-12-14T12:04:30.051Z,13.48
2018-12-14T12:09:23.242Z,12.37
2018-12-14T12:14:16.460Z,12.47
2018-12-14T12:19:09.654Z,14.58
2018-12-14T12:24:02.872Z,15.15
2018-12-14T12:28:56.072Z,12.30
2018-12-14T12:33:49.283Z,15.88
2018-12-14T12:38:42.519Z,12.65
2018-12-14T12:43:35.706Z,13.28
2018-12-14T12:48:28.940Z,14.15
2018-12-14T12:53:22.172Z,16.15
2018-12-14T12:58:16.139Z,13.98
2018-12-14T13:03:09.381Z,13.38
2018-12-14T13:08:02.583Z,14.28
2018-12-14T13:12:55.767Z,13.98
2018-12-14T13:17:48.981Z,14.75
2018-12-14T13:22:42.251Z,14.33
2018-12-14T13:27:35.557Z,15.85
2018-12-14T13:32:28.830Z,15.35
2018-12-14T13:37:23.118Z,13.28
2018-12-14T13:42:16.297Z,13.80
2018-12-14T13:47:09.563Z,14.90
2018-12-14T13:52:02.922Z,14.23
2018-12-14T13:56:56.285Z,16.75
2018-12-14T14:01:49.530Z,14.95
2018-12-14T14:06:44.105Z,15.45
2018-12-14T14:11:37.358Z,14.10
2018-12-14T14:16:30.599Z,16.70
2018-12-14T14:21:23.779Z,14.65
2018-12-14T14:26:16.967Z,15.32
2018-12-14T14:31:11.155Z,16.82
2018-12-14T14:36:04.403Z,14.68
2018-12-14T14:40:57.642Z,13.93
2018-12-14T14:45:50.820Z,15.68
2018-12-14T14:50:44.075Z,13.20
2018-12-14T14:55:37.877Z,13.88
2018-12-14T15:00:32.555Z,14.55
2018-12-14T15:05:25.754Z,17.80
2018-12-14T15:10:19.157Z,14.80
2018-12-14T15:15:12.357Z,15.18
2018-12-14T15:20:06.577Z,13.85
2018-12-14T15:24:59.773Z,15.28
2018-12-14T15:29:52.995Z,14.80
2018-12-14T15:34:46.281Z,13.03
2018-12-14T15:39:40.575Z,12.95
2018-12-14T15:44:33.780Z,12.35
2018-12-14T15:49:27.003Z,13.75
2018-12-14T15:54:20.271Z,14.80
2018-12-14T15:59:14.033Z,13.35
2018-12-14T16:04:07.685Z,15.20
2018-12-14T16:09:00.869Z,12.23
2018-12-14T16:13:54.556Z,15.30
2018-12-14T16:18:47.741Z,14.73
2018-12-14T16:23:41.002Z,14.18
2018-12-14T16:28:35.326Z,15.43
2018-12-14T16:33:28.715Z,12.05
2018-12-14T16:38:21.931Z,12.53
2018-12-14T16:43:15.159Z,12.70
2018-12-14T16:48:08.356Z,13.10
2018-12-14T16:53:01.774Z,13.83
2018-12-14T16:57:56.417Z,12.00
2018-12-14T17:02:50.235Z,15.75
2018-12-14T17:07:44.094Z,12.68
2018-12-14T17:12:37.616Z,13.03
2018-12-14T17:17:30.832Z,10.18
2018-12-14T17:22:24.016Z,11.73
2018-12-14T17:27:17.492Z,13.50
2018-12-14T17:32:10.803Z,11.03
2018-12-14T17:37:03.988Z,15.25
2018-12-14T17:41:57.310Z,10.65
2018-12-14T17:46:51.195Z,11.63
2018-12-14T17:51:44.821Z,10.00
2018-12-14T17:56:38.765Z,11.18
2018-12-14T18:01:31.964Z,10.48
2018-12-14T18:06:25.241Z,11.28
2018-12-14T18:11:18.413Z,9.88
2018-12-14T18:16:12.273Z,12.93
2018-12-14T18:21:05.678Z,10.72
2018-12-14T18:25:58.999Z,10.63
2018-12-14T18:30:52.177Z,12.43
2018-12-14T18:35:45.386Z,11.97
2018-12-14T18:40:38.551Z,13.30
2018-12-14T18:45:31.932Z,12.58
2018-12-14T18:50:25.103Z,10.60
2018-12-14T18:55:18.343Z,9.38
2018-12-14T19:00:11.752Z,10.13
2018-12-14T19:05:06.117Z,11.25
2018-12-14T19:09:59.481Z,12.37
2018-12-14T19:14:53.201Z,9.73
2018-12-14T19:19:46.412Z,12.05
2018-12-14T19:24:39.621Z,10.85
2018-12-14T19:29:32.841Z,11.35
2018-12-14T19:34:31.461Z,10.63
2018-12-14T19:39:21.312Z,9.80
2018-12-14T19:44:14.491Z,8.85
2018-12-14T19:49:07.673Z,11.95
2018-12-14T19:54:01.391Z,10.23
2018-12-14T19:58:54.603Z,9.60
2018-12-14T20:03:47.821Z,10.63
2018-12-14T20:08:41.031Z,8.90
2018-12-14T20:13:34.201Z,11.63
2018-12-14T20:18:27.430Z,11.15
2018-12-14T20:23:20.675Z,12.98
2018-12-14T20:28:13.893Z,13.65
2018-12-14T20:33:07.094Z,14.63
2018-12-14T20:38:00.473Z,16.62
2018-12-14T20:42:53.718Z,14.00
2018-12-14T20:47:47.655Z,14.40
2018-12-14T20:52:40.870Z,15.70
2018-12-14T20:57:34.074Z,14.40
2018-12-14T21:02:27.263Z,11.38
2018-12-14T21:07:20.469Z,13.20
2018-12-14T21:12:13.735Z,13.68
2018-12-14T21:17:07.151Z,11.03
2018-12-14T21:22:00.370Z,13.60
2018-12-14T21:26:53.589Z,12.75
2018-12-14T21:31:46.793Z,12.30
2018-12-14T21:36:40.032Z,14.43
2018-12-14T21:41:33.268Z,12.78
2018-12-14T21:46:32.340Z,11.73
2018-12-14T21:51:21.698Z,14.73
2018-12-14T21:56:14.920Z,12.73
2018-12-14T22:01:08.228Z,12.68
2018-12-14T22:06:01.447Z,14.35
2018-12-14T22:10:54.641Z,14.35
2018-12-14T22:15:47.863Z,13.35
2018-12-14T22:20:41.097Z,12.80
2018-12-14T22:25:34.333Z,13.83
2018-12-14T22:30:27.536Z,12.13
2018-12-14T22:35:20.743Z,13.70
2018-12-14T22:40:13.944Z,13.10
2018-12-14T22:45:07.374Z,14.10
2018-12-14T22:50:00.750Z,13.70
2018-12-14T22:54:53.954Z,12.78
2018-12-14T22:59:47.155Z,11.38
2018-12-14T23:04:40.337Z,10.90
2018-12-14T23:09:33.559Z,13.62
2018-12-14T23:14:26.739Z,13.70
2018-12-14T23:19:19.917Z,13.85
2018-12-14T23:24:14.954Z,13.90
2018-12-14T23:29:08.277Z,12.43
2018-12-14T23:34:01.804Z,12.40
2018-12-14T23:38:55.837Z,12.85
2018-12-14T23:43:49.103Z,14.03
2018-12-14T23:48:42.686Z,14.25
2018-12-14T23:53:36.024Z,14.85
2018-12-14T23:58:29.261Z,16.55
